• Join FlightAware (Why Join?)
  • Login
  • US Flag 
09:29PM EDT


 

Airport Tracker/Info


-or-


 

Live Flight TrackerFlight Track Log ✈ CTL21 ✈ 01-May-2013 ✈ KAZO - KBKL

Flight Track Log - Related Links

Times and Time Zones

All times are in EDT time to prevent confusion due to time zone crossing. See the CTL21 flight status page for this flight to view local times or setup timezone preferences in your user account.

Time Position Orientation Groundspeed Altitude Reporting Facility
EDT Latitude Longitude Course Direction KTS MPH feet Rate Location/Type
05:23PM 42.1611 -85.4033 118° Southeast 133 153 3,900  Level Chicago Center
05:24PM 42.1406 -85.3506 118° Southeast 133 153 4,600 540 Climbing Chicago Center
05:25PM 42.1244 -85.3056 116° Southeast 133 153 5,100 480 Climbing Chicago Center
05:26PM 42.1773 -85.2120 103° East  Level Estimated
05:26PM 42.1086 -85.2578 114° Southeast 137 158 5,600  Level Chicago Center
05:27PM 42.1676 -85.1554 103° East  Level Estimated
05:27PM 42.0906 -85.2100 117° Southeast 141 162 6,100  Level Chicago Center
05:28PM 42.0728 -85.1672 119° Southeast 135 155 6,700 480 Climbing Chicago Center
05:29PM 42.0547 -85.1228 119° Southeast 135 155 7,200 540 Climbing Chicago Center
05:30PM 42.0328 -85.0667 118° Southeast 139 160 7,900 540 Climbing Chicago Center
05:31PM 42.0139 -85.0219 120° Southeast 138 159 8,400 480 Climbing Chicago Center
05:32PM 41.9964 -84.9764 117° Southeast 138 159 9,000 240 Climbing Chicago Center
05:33PM 41.9764 -84.9281 119° Southeast 143 165 9,000  Level Chicago Center
05:34PM 41.9547 -84.8739 118° Southeast 157 181 9,000  Level Chicago Center
05:35PM 41.9344 -84.8189 116° Southeast 162 186 9,000  Level Chicago Center
05:36PM 41.9111 -84.7544 116° Southeast 160 184 9,000  Level Chicago Center
05:37PM 41.8900 -84.7042 119° Southeast 157 181 9,000  Level Chicago Center
05:38PM 41.8683 -84.6519 119° Southeast 158 182 9,000  Level Chicago Center
05:39PM 41.8478 -84.6017 119° Southeast 155 178 9,000  Level Chicago Center
05:40PM 41.8261 -84.5494 119° Southeast 158 182 9,000  Level Chicago Center
05:42PM 41.8058 -84.4986 118° Southeast 156 180 9,000  Level Chicago Center
05:43PM 41.7806 -84.4372 119° Southeast 156 180 9,000  Level Chicago Center
05:44PM 41.7586 -84.3861 120° Southeast 157 181 9,000  Level Chicago Center
05:45PM 41.7386 -84.3369 119° Southeast 153 176 9,000  Level Chicago Center
05:46PM 41.7183 -84.2869 119° Southeast 153 176 9,000  Level Chicago Center
05:47PM 41.6981 -84.2369 118° Southeast 153 176 9,000  Level Chicago Center
05:49PM 41.6606 -84.1451 119° Southeast  Level FlightAware Approximate
05:56PM 41.5159 -83.7924 119° Southeast  Level FlightAware Approximate
05:57PM 41.4951 -83.7421 119° Southeast  Level FlightAware Approximate
05:58PM 41.4743 -83.6919 119° Southeast  Level FlightAware Approximate
05:59PM 41.4535 -83.6417 119° Southeast  Level FlightAware Approximate
06:00PM 41.4489 -83.5855 92° East  Level FlightAware Approximate
06:00PM 41.5561 -83.4886 92° East 164 189 9,000  Level Cleveland Center
06:01PM 41.4476 -83.5282 92° East  Level FlightAware Approximate
06:01PM 41.5472 -83.4300 101° East 164 189 9,000  Level Cleveland Center
06:02PM 41.4462 -83.4708 92° East  Level FlightAware Approximate
06:02PM 41.5403 -83.3742 99° East 164 189 9,000  Level Cleveland Center
06:03PM 41.4448 -83.4135 92° East  Level FlightAware Approximate
06:03PM 41.5311 -83.3153 102° East 164 189 9,000  Level Cleveland Center
06:04PM 41.4434 -83.3562 92° East  Level FlightAware Approximate
06:04PM 41.5222 -83.2594 102° East 164 189 9,000  Level Cleveland Center
06:05PM 41.5153 -83.2011 99° East 164 189 8,900  Descending Cleveland Center
06:06PM 41.5061 -83.1453 102° East 164 189 9,000  Climbing Cleveland Center
06:07PM 41.4992 -83.0839 99° East 164 189 9,000 -60 Level Cleveland Center
06:08PM 41.4897 -83.0281 103° East 164 189 8,900 -60 Descending Cleveland Center
06:09PM 41.4828 -82.9725 99° East 159 183 8,900 120 Level Cleveland Center
06:09PM 41.4786 -82.9611 116° Southeast 156 180 9,100 240 Climbing Cleveland Center
06:10PM 41.4731 -82.9333 105° East 157 181 9,100 -300 Level Cleveland Center
06:10PM 41.4733 -82.9194 88° East 159 183 8,900  Descending Cleveland Center
06:11PM 41.4658 -82.8747 103° East 158 182 9,100  Climbing Cleveland Center
06:12PM 41.4586 -82.8192 100° East 158 182 9,000  Descending Cleveland Center
06:13PM 41.4494 -82.7550 101° East 158 182 9,100  Climbing Cleveland Center
06:14PM 41.4381 -82.6992 105° East 155 178 9,100  Level Cleveland Center
06:15PM 41.4347 -82.6439 95° East 159 183 9,100  Level Cleveland Center
06:16PM 41.4381 -82.5858 86° East 158 182 9,100  Level Cleveland Center
06:17PM 41.4536 -82.5281 70° East 156 180 9,100 -300 Level Cleveland Center
06:18PM 41.4692 -82.4703 70° East 168 193 8,600 -540 Descending Cleveland Center
06:19PM 41.4847 -82.4069 72° East 175 201 8,100 -540 Descending Cleveland Center
06:20PM 41.5003 -82.3464 71° East 176 203 7,600 -600 Descending Cleveland Center
06:21PM 41.5178 -82.2831 70° East 175 201 7,000 -660 Descending Cleveland Center
06:22PM 41.5314 -82.2225 73° East 172 198 6,300 -840 Descending Cleveland Center
06:23PM 41.5489 -82.1592 70° East 176 203 5,400 -1,440 Descending Cleveland Center
06:24PM 41.5644 -82.0928 73° East 199 229 3,500 -1,740 Descending Cleveland Center
06:25PM 41.5592 -82.0150 95° East 186 214 1,900 -840 Descending Cleveland Center
06:26PM 41.5536 -81.9594 98° East 139 160 1,800 -120 Descending Cleveland Center
06:27PM 41.5519 -81.9067 92° East 136 157 1,700 -120 Descending Cleveland Center
06:28PM 41.5442 -81.8594 102° East 142 163 1,600 -60 Descending Cleveland Center
06:29PM 41.5344 -81.8092 104° East 136 157 1,600  Level Cleveland Center
06:30PM 41.5267 -81.7647 103° East 123 142 1,600 -240 Level Cleveland Center
06:31PM 41.5167 -81.7172 106° East 128 147 1,200 -420 Descending Cleveland Center
06:33PM 41.5175 -81.6833 72° East  Level Estimated